Time,TemperatureF,DewpointF,PressureIn,WindDirection,WindDirectionDegrees,WindSpeedMPH,WindSpeedGustMPH,Humidity,HourlyPrecipIn,Conditions,Clouds,dailyrainin,SoftwareType,DateUTC
2013-05-06 00:01:00,64.0,60.0,29.85,NNE,15,0.0,0.0,87,0.00,,,0.00,,2013-05-06 07:01:00,
2013-05-06 00:22:00,64.0,57.0,29.85,NNE,15,0.0,2.0,79,0.00,,,0.00,,2013-05-06 07:22:00,
2013-05-06 00:52:00,64.0,57.0,29.85,NNE,15,0.0,0.0,79,0.00,,,0.00,,2013-05-06 07:52:00,
2013-05-06 01:21:00,64.0,57.0,29.85,NNE,15,0.0,0.0,79,0.00,,,0.00,,2013-05-06 08:21:00,
2013-05-06 01:31:00,64.0,57.0,29.85,NNE,15,0.0,0.0,79,0.00,,,0.00,,2013-05-06 08:31:00,
2013-05-06 02:01:00,64.0,57.0,29.85,NNE,15,0.0,0.0,79,0.00,,,0.00,,2013-05-06 09:01:00,
2013-05-06 02:22:00,64.0,57.0,29.85,NNE,15,0.0,0.0,79,0.00,,,0.00,,2013-05-06 09:22:00,
2013-05-06 02:32:00,64.0,57.0,29.85,NNE,15,0.0,0.0,79,0.00,,,0.00,,2013-05-06 09:32:00,
2013-05-06 02:53:00,64.0,57.0,29.85,NNE,15,0.0,0.0,79,0.00,,,0.00,,2013-05-06 09:53:00,
2013-05-06 03:02:00,64.0,57.0,29.85,NNE,15,0.0,0.0,79,0.00,,,0.00,,2013-05-06 10:02:00,
2013-05-06 03:22:00,64.0,57.0,29.85,NNE,15,0.0,0.0,79,0.00,,,0.00,,2013-05-06 10:22:00,
2013-05-06 03:32:00,64.0,57.0,29.85,NNE,15,0.0,0.0,79,0.00,,,0.00,,2013-05-06 10:32:00,
2013-05-06 03:52:00,64.0,57.0,29.85,NNE,15,0.0,0.0,79,0.00,,,0.00,,2013-05-06 10:52:00,
2013-05-06 04:02:00,64.0,57.0,29.85,NNE,15,0.0,0.0,79,0.00,,,0.00,,2013-05-06 11:02:00,
2013-05-06 04:21:00,64.0,57.0,29.85,NNE,15,0.0,0.0,79,0.00,,,0.00,,2013-05-06 11:21:00,
2013-05-06 04:31:00,64.0,57.0,29.85,NNE,15,0.0,0.0,79,0.00,,,0.00,,2013-05-06 11:31:00,
2013-05-06 04:52:00,64.0,57.0,29.85,NNE,15,0.0,0.0,79,0.00,,,0.00,,2013-05-06 11:52:00,
2013-05-06 05:01:00,64.0,57.0,29.85,NNE,15,0.0,0.0,79,0.00,,,0.00,,2013-05-06 12:01:00,
2013-05-06 05:21:00,64.0,57.0,29.85,NNE,15,0.0,0.0,79,0.00,,,0.00,,2013-05-06 12:21:00,
2013-05-06 05:31:00,64.0,57.0,29.85,NNE,15,0.0,0.0,79,0.00,,,0.00,,2013-05-06 12:31:00,
2013-05-06 05:52:00,64.0,57.0,29.85,NNE,15,0.0,0.0,79,0.00,,,0.00,,2013-05-06 12:52:00,
2013-05-06 06:01:00,64.0,57.0,29.85,NNE,15,0.0,0.0,79,0.00,,,0.00,,2013-05-06 13:01:00,
2013-05-06 06:21:00,56.0,40.0,29.87,NNE,32,0.0,0.0,55,0.00,,,0.00,,2013-05-06 13:21:00,
2013-05-06 06:31:00,56.0,44.0,29.88,NNE,32,0.0,0.0,63,0.00,,,0.00,,2013-05-06 13:31:00,
2013-05-06 06:42:00,56.0,44.0,29.88,NNE,32,0.0,0.0,63,0.00,,,0.00,,2013-05-06 13:42:00,
2013-05-06 06:52:00,56.0,43.0,29.88,NNE,32,0.0,0.0,62,0.00,,,0.00,,2013-05-06 13:52:00,
2013-05-06 07:01:00,55.0,40.0,29.88,NNE,32,0.0,0.0,57,0.00,,,0.00,,2013-05-06 14:01:00,
2013-05-06 07:11:00,55.0,40.0,29.88,NNE,32,0.0,0.0,57,0.00,,,0.00,,2013-05-06 14:11:00,
2013-05-06 07:21:00,55.0,40.0,29.88,NNE,32,0.0,0.0,57,0.00,,,0.00,,2013-05-06 14:21:00,
2013-05-06 07:32:00,55.0,41.0,29.88,NNE,32,0.0,0.0,58,0.00,,,0.00,,2013-05-06 14:32:00,
2013-05-06 07:42:00,55.0,40.0,29.88,NNE,32,0.0,1.0,57,0.00,,,0.00,,2013-05-06 14:42:00,
2013-05-06 07:52:00,55.0,40.0,29.88,NNE,32,0.0,1.0,57,0.00,,,0.00,,2013-05-06 14:52:00,
2013-05-06 08:01:00,55.0,40.0,29.89,NNE,32,0.0,1.0,57,0.00,,,0.00,,2013-05-06 15:01:00,
2013-05-06 08:21:00,56.0,40.0,29.89,NNW,347,1.0,3.0,55,0.00,,,0.00,,2013-05-06 15:21:00,
2013-05-06 08:33:00,56.0,40.0,29.89,NNW,347,0.0,1.0,55,0.00,,,0.00,,2013-05-06 15:33:00,
2013-05-06 08:53:00,57.0,41.0,29.89,NNW,347,1.0,1.0,55,0.00,,,0.00,,2013-05-06 15:53:00,
2013-05-06 09:02:00,58.0,41.0,29.89,North,356,0.0,2.0,53,0.00,,,0.00,,2013-05-06 16:02:00,
2013-05-06 09:32:00,59.0,41.0,29.89,WNW,302,1.0,3.0,52,0.00,,,0.00,,2013-05-06 16:32:00,
2013-05-06 09:41:00,59.0,41.0,29.89,WNW,302,1.0,3.0,52,0.00,,,0.00,,2013-05-06 16:41:00,
2013-05-06 09:52:00,60.0,42.0,29.89,NNW,333,0.0,2.0,52,0.00,,,0.00,,2013-05-06 16:52:00,
2013-05-06 10:02:00,61.0,42.0,29.89,NNE,31,1.0,3.0,50,0.00,,,0.00,,2013-05-06 17:02:00,
2013-05-06 10:11:00,61.0,42.0,29.89,NNE,31,1.0,3.0,50,0.00,,,0.00,,2013-05-06 17:11:00,
2013-05-06 10:22:00,62.0,43.0,29.89,NE,44,2.0,2.0,49,0.00,,,0.00,,2013-05-06 17:22:00,
2013-05-06 10:31:00,63.0,44.0,29.89,NE,44,1.0,2.0,49,0.00,,,0.00,,2013-05-06 17:31:00,
2013-05-06 10:42:00,63.0,44.0,29.89,NE,44,1.0,2.0,49,0.00,,,0.00,,2013-05-06 17:42:00,
2013-05-06 10:52:00,63.0,44.0,29.89,NW,319,0.0,3.0,49,0.00,,,0.00,,2013-05-06 17:52:00,
2013-05-06 11:01:00,64.0,43.0,29.89,NNW,345,1.0,2.0,47,0.00,,,0.00,,2013-05-06 18:01:00,
2013-05-06 11:11:00,64.0,43.0,29.89,NNW,345,1.0,2.0,47,0.00,,,0.00,,2013-05-06 18:11:00,
2013-05-06 11:21:00,65.0,45.0,29.89,South,179,0.0,2.0,48,0.00,,,0.00,,2013-05-06 18:21:00,
2013-05-06 11:31:00,66.0,43.0,29.88,North,352,1.0,3.0,43,0.00,,,0.00,,2013-05-06 18:31:00,
2013-05-06 11:42:00,66.0,43.0,29.88,North,352,1.0,3.0,43,0.00,,,0.00,,2013-05-06 18:42:00,
2013-05-06 11:52:00,66.0,45.0,29.88,North,352,2.0,2.0,47,0.00,,,0.00,,2013-05-06 18:52:00,
2013-05-06 12:01:00,67.0,45.0,29.88,North,10,1.0,3.0,45,0.00,,,0.00,,2013-05-06 19:01:00,
2013-05-06 12:11:00,67.0,45.0,29.88,North,10,1.0,3.0,45,0.00,,,0.00,,2013-05-06 19:11:00,
2013-05-06 12:21:00,68.0,46.0,29.88,NW,304,1.0,3.0,46,0.00,,,0.00,,2013-05-06 19:21:00,
2013-05-06 12:32:00,69.0,47.0,29.87,NNW,327,3.0,4.0,45,0.00,,,0.00,,2013-05-06 19:32:00,
2013-05-06 12:41:00,69.0,47.0,29.87,NNW,327,3.0,4.0,45,0.00,,,0.00,,2013-05-06 19:41:00,
2013-05-06 12:52:00,70.0,57.0,29.87,NE,38,0.0,4.0,63,0.00,,,0.00,,2013-05-06 19:52:00,
2013-05-06 13:01:00,72.0,58.0,29.87,NW,313,1.0,4.0,62,0.00,,,0.00,,2013-05-06 20:01:00,
2013-05-06 13:32:00,76.0,62.0,29.86,NNE,33,2.0,3.0,62,0.00,,,0.00,,2013-05-06 20:32:00,
2013-05-06 13:52:00,81.0,66.0,29.85,WNW,296,1.0,4.0,60,0.00,,,0.00,,2013-05-06 20:52:00,
2013-05-06 14:01:00,85.0,74.0,29.85,NE,35,1.0,2.0,69,0.00,,,0.00,,2013-05-06 21:01:00,
2013-05-06 14:32:00,87.0,70.0,29.85,NE,35,1.0,2.0,58,0.00,,,0.00,,2013-05-06 21:32:00,
2013-05-06 14:53:00,89.0,74.0,29.85,NW,310,2.0,3.0,61,0.00,,,0.00,,2013-05-06 21:53:00,
2013-05-06 15:02:00,89.0,72.0,29.84,ENE,57,1.0,3.0,57,0.00,,,0.00,,2013-05-06 22:02:00,
2013-05-06 15:22:00,90.0,75.0,29.84,North,0,1.0,3.0,61,0.00,,,0.00,,2013-05-06 22:22:00,
2013-05-06 15:33:00,92.0,86.0,29.83,North,356,2.0,5.0,83,0.00,,,0.00,,2013-05-06 22:33:00,
2013-05-06 15:52:00,92.0,86.0,29.83,NE,55,2.0,3.0,84,0.00,,,0.00,,2013-05-06 22:52:00,
2013-05-06 16:02:00,92.0,87.0,29.82,North,358,3.0,3.0,85,0.00,,,0.00,,2013-05-06 23:02:00,
2013-05-06 16:31:00,93.0,86.0,29.81,NW,325,1.0,3.0,80,0.00,,,0.00,,2013-05-06 23:31:00,
2013-05-06 17:01:00,89.0,83.0,29.80,NW,314,2.0,2.0,82,0.00,,,0.00,,2013-05-07 00:01:00,
2013-05-06 17:31:00,86.0,81.0,29.80,West,280,0.0,3.0,86,0.00,,,0.00,,2013-05-07 00:31:00,
2013-05-06 17:52:00,85.0,81.0,29.80,NE,50,1.0,4.0,87,0.00,,,0.00,,2013-05-07 00:52:00,
2013-05-06 18:01:00,83.0,79.0,29.80,NE,50,1.0,3.0,89,0.00,,,0.00,,2013-05-07 01:01:00,
2013-05-06 18:31:00,81.0,79.0,29.80,NNE,22,1.0,2.0,94,0.00,,,0.00,,2013-05-07 01:31:00,
2013-05-06 18:52:00,79.0,78.0,29.80,NNE,22,1.0,2.0,96,0.00,,,0.00,,2013-05-07 01:52:00,
2013-05-06 19:02:00,78.0,77.0,29.80,NNE,24,1.0,2.0,98,0.00,,,0.00,,2013-05-07 02:02:00,
2013-05-06 19:21:00,77.0,77.0,29.80,NNE,12,0.0,2.0,99,0.00,,,0.00,,2013-05-07 02:21:00,
2013-05-06 19:31:00,77.0,77.0,29.80,ENE,78,1.0,2.0,99,0.00,,,0.00,,2013-05-07 02:31:00,
2013-05-06 19:51:00,76.0,76.0,29.80,West,266,1.0,2.0,99,0.00,,,0.00,,2013-05-07 02:51:00,
2013-05-06 20:01:00,75.0,75.0,29.81,South,190,0.0,1.0,99,0.00,,,0.00,,2013-05-07 03:01:00,
2013-05-06 20:21:00,74.0,67.0,29.81,South,191,1.0,1.0,78,0.00,,,0.00,,2013-05-07 03:21:00,
2013-05-06 20:32:00,73.0,68.0,29.81,NE,55,1.0,1.0,83,0.00,,,0.00,,2013-05-07 03:32:00,
2013-05-06 20:53:00,71.0,68.0,29.81,SE,134,0.0,1.0,90,0.00,,,0.00,,2013-05-07 03:53:00,
2013-05-06 21:02:00,71.0,65.0,29.82,SE,134,0.0,1.0,82,0.00,,,0.00,,2013-05-07 04:02:00,
2013-05-06 21:23:00,70.0,70.0,29.83,SE,134,1.0,1.0,99,0.00,,,0.00,,2013-05-07 04:23:00,
2013-05-06 21:33:00,68.0,68.0,29.83,SE,134,0.0,1.0,99,0.00,,,0.00,,2013-05-07 04:33:00,
2013-05-06 21:52:00,67.0,66.0,29.83,SE,134,1.0,2.0,97,0.00,,,0.00,,2013-05-07 04:52:00,
2013-05-06 22:02:00,66.0,65.0,29.84,SE,134,2.0,2.0,95,0.00,,,0.00,,2013-05-07 05:02:00,
2013-05-06 22:22:00,66.0,65.0,29.84,West,278,1.0,2.0,95,0.00,,,0.00,,2013-05-07 05:22:00,
2013-05-06 22:32:00,65.0,64.0,29.84,West,278,1.0,1.0,95,0.00,,,0.00,,2013-05-07 05:32:00,
2013-05-06 23:02:00,63.0,60.0,29.85,West,278,1.0,2.0,90,0.00,,,0.00,,2013-05-07 06:02:00,
2013-05-06 23:22:00,62.0,62.0,29.85,West,268,0.0,2.0,99,0.00,,,0.00,,2013-05-07 06:22:00,
2013-05-06 23:32:00,61.0,60.0,29.85,West,268,0.0,1.0,96,0.00,,,0.00,,2013-05-07 06:32:00,